Time;durP1;ratioP1;P1;durP2;ratioP2;P2;SDS_P1;SDS_P2;PMS_P1;PMS_P2;Temp;Humidity;BMP_temperature;BMP_pressure;BME280_temperature;BME280_humidity;BME280_pressure;Samples;Min_cycle;Max_cycle;Signal;HPM_P1;HPM_P2
2023/10/03 00:00:24;;;;;;;0.00;0.00;;;;;;;12.78;100.00;99939.88;4828197;29;20048;-75
2023/10/03 00:02:52;;;;;;;0.00;0.00;;;;;;;12.76;100.00;99925.63;4867491;29;20029;-75
2023/10/03 00:05:22;;;;;;;0.00;0.00;;;;;;;12.87;100.00;99931.81;4850172;29;20499;-75
2023/10/03 00:07:48;;;;;;;0.00;0.00;;;;;;;12.91;100.00;99925.44;4843348;29;20044;-76
2023/10/03 00:10:13;;;;;;;0.00;0.00;;;;;;;12.98;100.00;99933.31;4870891;29;20037;-76
2023/10/03 00:12:39;;;;;;;0.00;0.00;;;;;;;13.01;100.00;99924.50;4858770;29;20036;-76
2023/10/03 00:15:08;;;;;;;0.00;0.00;;;;;;;13.03;100.00;99924.19;4844925;29;20035;-75
2023/10/03 00:17:34;;;;;;;0.00;0.00;;;;;;;13.02;100.00;99934.34;4840780;29;20028;-76
2023/10/03 00:20:02;;;;;;;0.00;0.00;;;;;;;13.05;100.00;99933.78;4875825;29;20055;-76
2023/10/03 00:22:27;;;;;;;0.00;0.00;;;;;;;13.04;100.00;99937.63;4838540;29;20115;-76
2023/10/03 00:24:53;;;;;;;0.00;0.00;;;;;;;13.08;100.00;99944.16;4836224;29;20135;-75
2023/10/03 00:27:18;;;;;;;0.00;0.00;;;;;;;13.07;100.00;99947.22;4842507;29;20037;-75
2023/10/03 00:29:44;;;;;;;0.00;0.00;;;;;;;13.11;100.00;99964.69;4841999;29;20044;-76
2023/10/03 00:32:10;;;;;;;0.00;0.00;;;;;;;13.10;100.00;99974.88;4856590;29;20037;-76
2023/10/03 00:34:36;;;;;;;0.00;0.00;;;;;;;13.00;100.00;99980.50;4871198;29;20029;-75
2023/10/03 00:37:05;;;;;;;0.00;0.00;;;;;;;12.97;100.00;100019.50;4829893;29;20039;-76
2023/10/03 00:39:30;;;;;;;0.00;0.00;;;;;;;12.85;100.00;100032.78;4831520;29;20118;-76
2023/10/03 00:41:56;;;;;;;0.00;0.00;;;;;;;12.70;100.00;100036.53;4854751;29;20029;-76
2023/10/03 00:44:21;;;;;;;0.00;0.00;;;;;;;12.59;100.00;100035.81;4862460;29;20146;-74
2023/10/03 00:46:47;;;;;;;0.00;0.00;;;;;;;12.49;100.00;100046.88;4846217;29;20049;-77
2023/10/03 00:49:14;;;;;;;0.00;0.00;;;;;;;12.44;100.00;100053.22;4846563;29;20476;-75
2023/10/03 00:51:45;;;;;;;0.00;0.00;;;;;;;12.37;100.00;100055.50;4842146;29;20068;-75
2023/10/03 00:54:11;;;;;;;0.00;0.00;;;;;;;12.42;100.00;100068.34;4849650;29;20033;-76
2023/10/03 00:56:37;;;;;;;0.00;0.00;;;;;;;12.49;100.00;100085.28;4858655;29;20035;-76
2023/10/03 00:59:03;;;;;;;0.00;0.00;;;;;;;12.34;100.00;100076.06;4869894;29;20036;-75
2023/10/03 01:01:32;;;;;;;0.00;0.00;;;;;;;12.40;100.00;100082.34;4874363;29;20113;-76
2023/10/03 01:04:00;;;;;;;0.00;0.00;;;;;;;12.29;100.00;100073.34;4854764;29;20033;-76
2023/10/03 01:06:25;;;;;;;0.00;0.00;;;;;;;12.31;100.00;100086.78;4825536;29;20029;-76
2023/10/03 01:08:51;;;;;;;0.00;0.00;;;;;;;12.36;100.00;100095.78;4837691;29;20389;-76
2023/10/03 01:11:18;;;;;;;0.00;0.00;;;;;;;12.38;100.00;100093.59;4835525;29;20109;-76
2023/10/03 01:13:53;;;;;;;0.00;0.00;;;;;;;12.46;100.00;100091.34;4850548;29;20036;-75
2023/10/03 01:16:26;;;;;;;0.00;0.00;;;;;;;12.46;100.00;100097.63;4867822;29;20032;-75
2023/10/03 01:18:53;;;;;;;0.10;0.10;;;;;;;12.48;100.00;100108.31;4869195;29;20029;-75
2023/10/03 01:21:21;;;;;;;0.00;0.00;;;;;;;12.49;100.00;100113.50;4855367;29;20036;-76
2023/10/03 01:23:47;;;;;;;0.00;0.00;;;;;;;12.50;100.00;100117.06;4849923;29;20033;-76
2023/10/03 01:26:14;;;;;;;0.00;0.00;;;;;;;12.47;100.00;100132.19;4850229;29;20529;-76
2023/10/03 01:28:40;;;;;;;0.00;0.00;;;;;;;12.46;100.00;100127.00;4827594;29;20052;-76
2023/10/03 01:31:05;;;;;;;0.00;0.00;;;;;;;12.43;100.00;100122.06;4853190;29;20021;-76
2023/10/03 01:33:32;;;;;;;0.00;0.00;;;;;;;12.42;100.00;100117.69;4857646;29;20041;-77
2023/10/03 01:35:59;;;;;;;0.00;0.00;;;;;;;12.44;100.00;100121.78;4839599;29;20044;-76
2023/10/03 01:38:28;;;;;;;0.00;0.00;;;;;;;12.34;100.00;100106.22;4840873;29;20041;-76
2023/10/03 01:40:59;;;;;;;0.00;0.00;;;;;;;12.42;100.00;100123.19;4874221;29;20488;-75
2023/10/03 01:43:25;;;;;;;0.00;0.00;;;;;;;12.38;100.00;100123.75;4850951;29;20728;-76
2023/10/03 01:45:52;;;;;;;0.00;0.00;;;;;;;12.36;100.00;100114.97;4842398;29;20456;-76
2023/10/03 01:48:18;;;;;;;0.00;0.00;;;;;;;12.36;100.00;100131.44;4837236;29;20044;-76
2023/10/03 01:50:44;;;;;;;0.00;0.00;;;;;;;12.37;100.00;100137.75;4858496;29;20041;-76
2023/10/03 01:53:11;;;;;;;0.00;0.00;;;;;;;12.33;100.00;100121.03;4856764;29;20691;-76
2023/10/03 01:55:37;;;;;;;0.00;0.00;;;;;;;12.39;100.00;100139.06;4861097;29;20028;-76
2023/10/03 01:58:04;;;;;;;0.00;0.00;;;;;;;12.28;100.00;100132.06;4868064;29;20025;-77
2023/10/03 02:00:30;;;;;;;0.00;0.00;;;;;;;12.26;100.00;100136.16;4863847;29;20028;-77
2023/10/03 02:03:12;;;;;;;0.00;0.00;;;;;;;12.15;100.00;100129.91;4872766;29;20021;-76
2023/10/03 02:05:39;;;;;;;0.00;0.00;;;;;;;12.01;100.00;100141.50;4861791;29;20112;-76
2023/10/03 02:08:12;;;;;;;0.10;0.10;;;;;;;11.91;100.00;100151.69;4847926;29;20556;-76
2023/10/03 02:10:43;;;;;;;0.10;0.10;;;;;;;11.77;100.00;100143.25;4872873;29;22125;-74
2023/10/03 02:13:12;;;;;;;0.00;0.00;;;;;;;11.79;100.00;100143.81;4860296;29;20033;-75
2023/10/03 02:15:42;;;;;;;0.00;0.00;;;;;;;11.67;100.00;100131.25;4834315;29;20489;-75
2023/10/03 02:18:09;;;;;;;0.00;0.00;;;;;;;11.58;100.00;100132.94;4841435;29;20041;-75
2023/10/03 02:20:51;;;;;;;0.00;0.00;;;;;;;11.53;100.00;100141.16;4842569;29;20048;-75
2023/10/03 02:23:24;;;;;;;0.00;0.00;;;;;;;11.47;100.00;100137.59;4860879;29;20032;-76
2023/10/03 02:25:52;;;;;;;0.00;0.00;;;;;;;11.42;100.00;100145.00;4856930;29;20621;-75
2023/10/03 02:28:18;;;;;;;0.00;0.00;;;;;;;11.37;100.00;100137.63;4845469;29;20025;-78
2023/10/03 02:30:51;;;;;;;0.00;0.00;;;;;;;11.35;100.00;100145.31;4835192;29;20379;-76
2023/10/03 02:33:18;;;;;;;0.00;0.00;;;;;;;11.33;100.00;100156.56;4877305;29;20457;-75
2023/10/03 02:35:47;;;;;;;0.00;0.00;;;;;;;11.31;100.00;100164.22;4875127;29;20036;-76
2023/10/03 02:38:17;;;;;;;0.00;0.00;;;;;;;11.27;100.00;100165.88;4848719;29;20040;-76
2023/10/03 02:40:43;;;;;;;0.00;0.00;;;;;;;11.27;100.00;100165.88;4859880;29;20137;-76
2023/10/03 02:43:10;;;;;;;0.00;0.00;;;;;;;11.29;100.00;100169.16;4846541;29;20193;-75
2023/10/03 02:45:37;;;;;;;0.10;0.10;;;;;;;11.28;100.00;100166.69;4873110;29;20032;-76
2023/10/03 02:48:13;;;;;;;0.00;0.00;;;;;;;11.26;100.00;100180.66;4874800;29;20036;-74
2023/10/03 02:50:39;;;;;;;0.00;0.00;;;;;;;11.27;100.00;100185.03;4850374;29;20045;-75
2023/10/03 02:53:12;;;;;;;0.00;0.00;;;;;;;11.25;100.00;100195.44;4859074;29;20035;-74
2023/10/03 02:55:37;;;;;;;0.00;0.00;;;;;;;11.22;100.00;100197.91;4839540;29;20029;-75
2023/10/03 02:58:03;;;;;;;0.00;0.00;;;;;;;11.18;100.00;100189.41;4865930;29;20035;-75
2023/10/03 03:00:28;;;;;;;0.00;0.00;;;;;;;11.14;100.00;100199.28;4869682;29;20036;-74
2023/10/03 03:02:54;;;;;;;0.00;0.00;;;;;;;11.11;100.00;100200.66;4859350;29;20040;-74
2023/10/03 03:05:22;;;;;;;0.00;0.00;;;;;;;11.16;100.00;100213.50;4869624;29;20040;-75
2023/10/03 03:07:49;;;;;;;0.00;0.00;;;;;;;11.15;100.00;100217.34;4873274;29;20028;-74
2023/10/03 03:10:17;;;;;;;0.00;0.00;;;;;;;11.15;100.00;100220.06;4858306;29;20043;-76
2023/10/03 03:12:47;;;;;;;0.00;0.00;;;;;;;11.13;100.00;100219.53;4852361;29;20066;-75
2023/10/03 03:15:32;;;;;;;0.00;0.00;;;;;;;10.92;100.00;100192.19;4854812;29;20120;-75
2023/10/03 03:17:57;;;;;;;;;;;;;;;11.06;100.00;100229.94;4879973;29;20544;-76
2023/10/03 03:20:27;;;;;;;0.00;0.00;;;;;;;10.98;100.00;100223.91;4853111;29;19920;-74
2023/10/03 03:22:53;;;;;;;0.00;0.00;;;;;;;10.93;100.00;100221.16;4846048;29;20029;-75
2023/10/03 03:25:36;;;;;;;0.00;0.00;;;;;;;10.91;100.00;100225.28;4861131;29;20037;-75
2023/10/03 03:28:04;;;;;;;0.00;0.00;;;;;;;10.86;100.00;100237.03;4871893;29;20367;-74
2023/10/03 03:32:58;;;;;;;0.00;0.00;;;;;;;10.79;100.00;100225.53;4860976;29;20036;-71
2023/10/03 03:35:24;;;;;;;0.00;0.00;;;;;;;10.76;100.00;100234.28;4841830;29;20033;-72
2023/10/03 03:37:57;;;;;;;0.00;0.00;;;;;;;10.72;100.00;100236.75;4855731;29;20040;-73
2023/10/03 03:40:34;;;;;;;0.00;0.00;;;;;;;10.76;100.00;100245.22;4850657;29;20045;-73
2023/10/03 03:43:01;;;;;;;0.10;0.10;;;;;;;10.73;100.00;100243.03;4845038;29;20053;-72
2023/10/03 03:45:26;;;;;;;0.00;0.00;;;;;;;10.74;100.00;100240.03;4858001;29;20056;-72
2023/10/03 03:47:55;;;;;;;0.00;0.00;;;;;;;10.76;100.00;100253.44;4867987;29;20514;-73
2023/10/03 03:50:21;;;;;;;0.00;0.00;;;;;;;10.76;100.00;100250.69;4871671;29;20487;-73
2023/10/03 03:52:49;;;;;;;0.00;0.00;;;;;;;10.72;100.00;100257.78;4859802;29;20029;-73
2023/10/03 03:55:17;;;;;;;0.00;0.00;;;;;;;10.70;100.00;100260.00;4843137;29;20073;-72
2023/10/03 03:57:42;;;;;;;0.00;0.00;;;;;;;10.59;100.00;100243.56;4874988;29;20032;-73
2023/10/03 04:00:14;;;;;;;0.00;0.00;;;;;;;10.60;100.00;100261.63;4865392;29;20033;-72
2023/10/03 04:02:40;;;;;;;0.00;0.00;;;;;;;10.57;100.00;100270.38;4849067;29;20057;-71
2023/10/03 04:05:07;;;;;;;0.00;0.00;;;;;;;10.53;100.00;100266.53;4864957;29;20075;-73
2023/10/03 04:07:38;;;;;;;0.00;0.00;;;;;;;10.45;100.00;100265.16;4862135;29;20380;-73
2023/10/03 04:10:06;;;;;;;0.00;0.00;;;;;;;10.36;100.00;100264.00;4874893;29;20053;-73
2023/10/03 04:12:38;;;;;;;0.08;0.08;;;;;;;10.29;100.00;100266.13;4870268;29;20495;-74
2023/10/03 04:15:05;;;;;;;0.00;0.00;;;;;;;10.20;100.00;100274.03;4844367;29;20120;-73
2023/10/03 04:17:33;;;;;;;0.00;0.00;;;;;;;10.07;100.00;100263.59;4858654;29;20033;-73
2023/10/03 04:19:59;;;;;;;0.00;0.00;;;;;;;10.08;100.00;100276.19;4863473;29;20081;-72
2023/10/03 04:22:30;;;;;;;0.00;0.00;;;;;;;10.09;100.00;100278.66;4853889;29;20040;-73
2023/10/03 04:24:56;;;;;;;0.00;0.00;;;;;;;10.12;100.00;100296.41;4842638;29;20025;-73
2023/10/03 04:27:25;;;;;;;0.00;0.00;;;;;;;10.07;100.00;100286.28;4856279;29;20065;-73
2023/10/03 04:29:51;;;;;;;0.00;0.00;;;;;;;10.10;100.00;100301.31;4838316;29;20032;-72
2023/10/03 04:32:17;;;;;;;0.00;0.00;;;;;;;10.06;100.00;100306.50;4841999;29;20033;-74
2023/10/03 04:34:42;;;;;;;0.00;0.00;;;;;;;9.98;100.00;100292.53;4856980;29;20101;-74
2023/10/03 04:37:10;;;;;;;0.00;0.00;;;;;;;10.04;100.00;100303.19;4858462;29;20048;-74
2023/10/03 04:39:36;;;;;;;0.00;0.00;;;;;;;10.01;100.00;100297.44;4863582;29;20712;-73
2023/10/03 04:42:01;;;;;;;0.00;0.00;;;;;;;10.14;100.00;100316.09;4834200;29;20121;-72
2023/10/03 04:44:26;;;;;;;0.00;0.00;;;;;;;10.22;100.00;100321.06;4863438;29;20037;-74
2023/10/03 04:46:52;;;;;;;0.00;0.00;;;;;;;10.29;100.00;100321.66;4835117;29;20033;-73
2023/10/03 04:49:17;;;;;;;0.00;0.00;;;;;;;10.32;100.00;100325.72;4867164;29;20036;-73
2023/10/03 04:51:45;;;;;;;0.00;0.00;;;;;;;10.32;100.00;100325.72;4823549;29;20124;-74
2023/10/03 04:54:11;;;;;;;0.00;0.00;;;;;;;10.34;100.00;100320.03;4860749;29;20051;-73
2023/10/03 04:56:36;;;;;;;0.00;0.00;;;;;;;10.23;100.00;100316.41;4856032;29;20036;-75
2023/10/03 04:59:03;;;;;;;0.00;0.00;;;;;;;10.19;100.00;100316.13;4826529;29;20062;-72
2023/10/03 05:01:29;;;;;;;0.00;0.00;;;;;;;10.23;100.00;100317.22;4843348;29;20729;-73
2023/10/03 05:03:54;;;;;;;0.00;0.00;;;;;;;10.21;100.00;100313.94;4824935;29;20029;-72
2023/10/03 05:06:20;;;;;;;0.00;0.00;;;;;;;10.24;100.00;100318.06;4840188;29;20113;-73
2023/10/03 05:08:46;;;;;;;0.00;0.00;;;;;;;10.14;100.00;100318.81;4865028;29;20397;-73
2023/10/03 05:11:13;;;;;;;0.00;0.00;;;;;;;10.14;100.00;100324.28;4842259;29;20089;-73
2023/10/03 05:13:43;;;;;;;0.00;0.00;;;;;;;10.11;100.00;100324.81;4831829;29;20032;-74
2023/10/03 05:16:15;;;;;;;0.00;0.00;;;;;;;9.99;100.00;100310.53;4875085;29;20025;-74
2023/10/03 05:18:42;;;;;;;0.00;0.00;;;;;;;9.96;100.00;100323.66;4857243;29;20032;-74
2023/10/03 05:21:07;;;;;;;0.00;0.00;;;;;;;10.05;100.00;100336.81;4872853;29;20021;-73
2023/10/03 05:23:33;;;;;;;0.00;0.00;;;;;;;10.01;100.00;100341.16;4827201;29;20127;-73
2023/10/03 05:25:59;;;;;;;0.00;0.00;;;;;;;9.95;100.00;100346.56;4840856;29;20048;-73
2023/10/03 05:28:25;;;;;;;0.00;0.00;;;;;;;9.88;100.00;100343.25;4843978;29;20089;-72
2023/10/03 05:30:52;;;;;;;0.00;0.00;;;;;;;9.81;100.00;100348.13;4849714;29;20041;-74
2023/10/03 05:33:20;;;;;;;0.00;0.00;;;;;;;9.81;100.00;100364.50;4853530;29;20029;-73
2023/10/03 05:35:46;;;;;;;0.00;0.00;;;;;;;9.76;100.00;100362.56;4857960;29;20043;-73
2023/10/03 05:38:11;;;;;;;0.00;0.00;;;;;;;9.73;100.00;100356.81;4854947;29;20987;-73
2023/10/03 05:40:37;;;;;;;0.00;0.00;;;;;;;9.71;100.00;100364.44;4825757;29;20053;-72
2023/10/03 05:43:04;;;;;;;0.00;0.00;;;;;;;9.65;100.00;100357.31;4844531;29;20502;-72
2023/10/03 05:45:30;;;;;;;0.00;0.00;;;;;;;9.69;100.00;100372.06;4861229;29;20105;-74
2023/10/03 05:47:55;;;;;;;0.00;0.00;;;;;;;9.73;100.00;100392.31;4873695;29;20475;-71
2023/10/03 05:50:21;;;;;;;0.00;0.00;;;;;;;9.73;100.00;100400.50;4871180;29;20033;-72
2023/10/03 05:52:47;;;;;;;0.00;0.00;;;;;;;9.73;100.00;100395.06;4826262;29;20038;-72
2023/10/03 05:55:13;;;;;;;0.00;0.00;;;;;;;9.67;100.00;100396.91;4874691;29;20108;-73
2023/10/03 05:57:41;;;;;;;0.10;0.10;;;;;;;9.58;100.00;100404.75;4872022;29;20049;-72
2023/10/03 06:00:16;;;;;;;0.00;0.00;;;;;;;9.52;100.00;100402.22;4852833;29;20033;-72
2023/10/03 06:02:43;;;;;;;0.00;0.00;;;;;;;9.52;100.00;100414.00;4840417;29;20034;-71
2023/10/03 06:05:09;;;;;;;0.00;0.00;;;;;;;9.50;100.00;100402.50;4854243;29;20029;-74
2023/10/03 06:07:37;;;;;;;0.00;0.00;;;;;;;9.51;100.00;100420.53;4823004;29;20129;-75
2023/10/03 06:10:04;;;;;;;0.00;0.00;;;;;;;9.37;100.00;100411.91;4862911;29;20504;-74
2023/10/03 06:12:33;;;;;;;0.00;0.00;;;;;;;9.35;100.00;100416.81;4854633;29;20391;-74
2023/10/03 06:14:59;;;;;;;0.00;0.00;;;;;;;9.47;100.00;100434.97;4875079;29;20029;-72
2023/10/03 06:17:24;;;;;;;0.00;0.00;;;;;;;9.42;100.00;100447.47;4856003;29;20597;-73
2023/10/03 06:19:53;;;;;;;0.00;0.00;;;;;;;9.45;100.00;100443.41;4846101;29;20132;-72
2023/10/03 06:22:20;;;;;;;0.00;0.00;;;;;;;9.45;100.00;100440.69;4839852;29;20033;-73
2023/10/03 06:24:46;;;;;;;0.00;0.00;;;;;;;9.54;100.00;100439.13;4863194;29;20048;-72
2023/10/03 06:27:12;;;;;;;0.00;0.00;;;;;;;9.72;100.00;100445.28;4834075;29;20077;-73
2023/10/03 06:29:43;;;;;;;0.00;0.00;;;;;;;9.70;100.00;100431.88;4821531;29;20127;-73
2023/10/03 06:32:09;;;;;;;0.00;0.00;;;;;;;9.87;100.00;100437.22;4874317;29;20037;-73
2023/10/03 06:34:42;;;;;;;0.00;0.00;;;;;;;9.99;100.00;100442.50;4867745;29;20084;-72
2023/10/03 06:37:10;;;;;;;0.00;0.00;;;;;;;10.13;100.00;100460.09;4871256;29;20033;-73
2023/10/03 06:39:35;;;;;;;0.00;0.00;;;;;;;10.25;100.00;100462.66;4843612;29;20113;-72
2023/10/03 06:42:01;;;;;;;0.00;0.00;;;;;;;10.28;100.00;100455.84;4844193;29;20560;-74
2023/10/03 06:44:31;;;;;;;0.00;0.00;;;;;;;10.45;100.00;100466.63;4869256;29;20092;-73
2023/10/03 06:47:05;;;;;;;0.10;0.10;;;;;;;10.71;100.00;100483.19;4853318;29;20028;-73
2023/10/03 06:49:30;;;;;;;0.00;0.00;;;;;;;10.81;100.00;100485.97;4846571;29;20029;-72
2023/10/03 06:51:57;;;;;;;0.00;0.00;;;;;;;11.11;100.00;100500.84;4851929;29;20021;-70
2023/10/03 06:54:32;;;;;;;0.00;0.00;;;;;;;11.26;100.00;100489.16;4875468;29;20044;-71
2023/10/03 06:56:58;;;;;;;0.00;0.00;;;;;;;11.42;100.00;100496.31;4854448;29;20069;-73
2023/10/03 06:59:26;;;;;;;0.00;0.00;;;;;;;11.59;100.00;100501.53;4879266;29;20025;-72
2023/10/03 07:01:51;;;;;;;0.00;0.00;;;;;;;11.62;100.00;100490.06;4855371;29;20092;-73
2023/10/03 07:04:20;;;;;;;0.00;0.00;;;;;;;11.90;100.00;100509.81;4861138;29;20025;-74
2023/10/03 07:06:45;;;;;;;0.00;0.00;;;;;;;11.93;100.00;100490.13;4872503;29;20033;-71
2023/10/03 07:09:16;;;;;;;0.00;0.00;;;;;;;12.21;100.00;100507.13;4870209;29;20491;-72
2023/10/03 07:11:42;;;;;;;0.00;0.00;;;;;;;12.30;100.00;100510.94;4858647;29;20361;-72
2023/10/03 07:14:12;;;;;;;0.00;0.00;;;;;;;12.43;100.00;100503.25;4846333;29;20039;-72
2023/10/03 07:16:41;;;;;;;0.00;0.00;;;;;;;12.60;100.00;100509.28;4876617;29;20021;-72
2023/10/03 07:19:24;;;;;;;0.00;0.00;;;;;;;12.79;100.00;100512.25;4849794;29;20519;-73
2023/10/03 07:21:52;;;;;;;0.00;0.00;;;;;;;13.21;100.00;100541.16;4868050;29;20033;-71
2023/10/03 07:24:18;;;;;;;0.00;0.00;;;;;;;13.29;97.94;100531.53;4855124;29;20044;-72
2023/10/03 07:26:43;;;;;;;0.00;0.00;;;;;;;13.34;97.03;100538.94;4850686;29;20037;-72
2023/10/03 07:29:09;;;;;;;0.00;0.00;;;;;;;13.28;96.76;100521.66;4850364;29;20089;-71
2023/10/03 07:31:34;;;;;;;0.00;0.00;;;;;;;13.51;96.25;100550.41;4875411;29;20021;-71
2023/10/03 07:34:00;;;;;;;0.00;0.00;;;;;;;13.53;95.53;100550.94;4875817;29;20037;-73
2023/10/03 07:36:26;;;;;;;0.00;0.00;;;;;;;13.58;93.57;100567.41;4876344;29;20068;-72
2023/10/03 07:38:51;;;;;;;0.00;0.00;;;;;;;13.44;92.59;100578.19;4852392;29;20677;-71
2023/10/03 07:41:18;;;;;;;0.00;0.00;;;;;;;13.35;93.52;100579.88;4843910;29;20040;-72
2023/10/03 07:43:47;;;;;;;0.00;0.00;;;;;;;13.41;93.61;100567.75;4854658;29;20052;-71
2023/10/03 07:46:25;;;;;;;0.00;0.00;;;;;;;13.63;92.74;100591.28;4859729;29;20039;-71
2023/10/03 07:48:56;;;;;;;0.00;0.00;;;;;;;13.61;92.42;100577.03;4869354;29;20053;-72
2023/10/03 07:51:29;;;;;;;0.00;0.00;;;;;;;13.83;92.05;100606.03;4877371;29;20436;-72
2023/10/03 07:53:55;;;;;;;0.00;0.00;;;;;;;14.73;89.61;100601.28;4874840;29;20052;-72
2023/10/03 07:56:33;;;;;;;0.00;0.00;;;;;;;14.79;85.83;100589.94;4874676;29;20025;-72
2023/10/03 07:59:01;;;;;;;0.00;0.00;;;;;;;14.48;86.70;100600.34;4865380;29;20044;-72
2023/10/03 08:01:29;;;;;;;0.00;0.00;;;;;;;14.30;89.30;100616.44;4851506;29;20041;-73
2023/10/03 08:03:57;;;;;;;0.00;0.00;;;;;;;14.48;88.00;100617.69;4843913;29;20021;-71
2023/10/03 08:06:27;;;;;;;0.00;0.00;;;;;;;14.30;88.01;100621.94;4867483;29;20480;-71
2023/10/03 08:08:59;;;;;;;0.00;0.00;;;;;;;14.07;89.58;100634.47;4869276;29;20120;-71
2023/10/03 08:11:29;;;;;;;0.00;0.00;;;;;;;13.83;90.43;100641.75;4844385;29;20087;-73
2023/10/03 08:14:13;;;;;;;0.00;0.00;;;;;;;13.55;91.69;100644.06;4854380;29;20044;-74
2023/10/03 08:16:43;;;;;;;;;;;;;;;13.74;93.13;100652.50;4871787;29;20787;-71
2023/10/03 08:19:32;;;;;;;0.00;0.00;;;;;;;14.08;91.45;100627.06;4870054;29;20275;-71
2023/10/03 08:21:58;;;;;;;0.00;0.00;;;;;;;15.11;88.43;100651.84;4875217;29;20196;-72
2023/10/03 08:24:24;;;;;;;0.00;0.00;;;;;;;16.13;83.33;100671.03;4869686;29;20052;-72
2023/10/03 08:26:51;;;;;;;0.00;0.00;;;;;;;16.75;78.27;100661.81;4878101;29;20076;-73
2023/10/03 08:29:33;;;;;;;;;;;;;;;;;;;;;
2023/10/03 08:31:59;;;;;;;0.00;0.00;;;;;;;19.27;70.00;100680.50;4867394;29;20037;-73
2023/10/03 08:34:30;;;;;;;0.10;0.10;;;;;;;22.18;58.63;100694.69;4874137;29;20049;-71
2023/10/03 08:37:18;;;;;;;0.00;0.00;;;;;;;23.69;51.88;100705.72;4850358;29;20037;-71
2023/10/03 08:39:45;;;;;;;0.00;0.00;;;;;;;24.84;46.87;100691.69;4865694;29;20140;-71
2023/10/03 08:42:34;;;;;;;0.00;0.00;;;;;;;25.80;44.21;100709.34;4875055;29;20029;-72
2023/10/03 08:45:16;;;;;;;0.00;0.00;;;;;;;26.71;42.30;100701.84;4866836;29;20155;-71
2023/10/03 08:47:47;;;;;;;0.00;0.00;;;;;;;25.79;41.64;100702.16;4876476;29;20479;-71
2023/10/03 08:50:33;;;;;;;0.00;0.00;;;;;;;23.47;45.84;100705.00;4852664;29;20054;-72
2023/10/03 08:53:48;;;;;;;0.00;0.00;;;;;;;21.72;49.76;100706.44;4875795;29;20056;-72
2023/10/03 08:55:48;;;;;;;0.00;0.00;;;;;;;;;;4856691;29;20112;-71
2023/10/03 08:58:25;;;;;;;0.00;0.00;;;;;;;24.06;48.36;100711.31;4873323;29;20045;-72
2023/10/03 09:01:03;;;;;;;0.00;0.00;;;;;;;24.80;44.63;100699.97;4874883;29;20052;-72
2023/10/03 09:03:42;;;;;;;0.00;0.00;;;;;;;27.14;41.89;100708.25;4874016;29;20049;-71
2023/10/03 09:06:07;;;;;;;0.00;0.00;;;;;;;29.15;35.29;100717.25;4876255;29;20031;-71
2023/10/03 09:08:33;;;;;;;0.00;0.00;;;;;;;30.24;34.79;100736.66;4875136;29;20028;-72
2023/10/03 09:11:00;;;;;;;0.00;0.00;;;;;;;30.65;32.92;100730.88;4840593;29;20084;-71
2023/10/03 09:13:28;;;;;;;0.00;0.00;;;;;;;29.85;32.54;100734.41;4869485;29;20124;-71
2023/10/03 09:16:08;;;;;;;0.00;0.00;;;;;;;26.89;37.26;100738.66;4869082;29;20029;-72
2023/10/03 09:18:42;;;;;;;0.00;0.00;;;;;;;23.71;43.11;100736.88;4856920;29;20424;-71
2023/10/03 09:21:27;;;;;;;0.00;0.00;;;;;;;21.11;48.35;100737.19;4866953;29;20156;-71
2023/10/03 09:23:59;;;;;;;0.00;0.00;;;;;;;20.13;52.76;100731.13;4868447;29;20455;-71
2023/10/03 09:26:25;;;;;;;0.00;0.00;;;;;;;21.12;51.38;100735.25;4869615;29;20067;-72
2023/10/03 09:28:51;;;;;;;0.00;0.00;;;;;;;21.86;50.44;100744.34;4857633;29;20487;-71
2023/10/03 09:31:22;;;;;;;0.00;0.00;;;;;;;24.54;44.43;100748.69;4860310;29;20049;-72
2023/10/03 09:33:47;;;;;;;0.00;0.00;;;;;;;26.79;40.58;100754.06;4863652;29;20045;-71
2023/10/03 09:36:14;;;;;;;0.00;0.00;;;;;;;29.91;35.00;100749.75;4870337;29;20021;-71
2023/10/03 09:38:44;;;;;;;0.00;0.00;;;;;;;30.52;31.88;100766.28;4850306;29;20040;-72
2023/10/03 09:41:18;;;;;;;0.00;0.00;;;;;;;28.45;35.70;100773.03;4875226;29;20052;-72
2023/10/03 09:43:53;;;;;;;0.00;0.00;;;;;;;27.80;35.81;100783.25;4855057;29;20044;-72
2023/10/03 09:46:23;;;;;;;0.00;0.00;;;;;;;23.88;41.13;100777.78;4856562;29;20488;-71
2023/10/03 09:48:53;;;;;;;0.00;0.00;;;;;;;20.71;48.40;100779.91;4848874;29;20052;-73
2023/10/03 09:51:24;;;;;;;0.00;0.00;;;;;;;18.80;54.49;100786.94;4842406;29;20568;-72
2023/10/03 09:53:50;;;;;;;0.00;0.00;;;;;;;18.16;58.51;100784.19;4851374;29;20072;-72
2023/10/03 09:56:19;;;;;;;0.00;0.00;;;;;;;20.24;55.91;100782.44;4873056;29;20059;-73
2023/10/03 09:58:48;;;;;;;0.00;0.00;;;;;;;23.48;45.57;100801.53;4839470;29;20037;-71
2023/10/03 10:01:14;;;;;;;0.00;0.00;;;;;;;24.34;43.77;100808.38;4842124;29;20037;-73
2023/10/03 10:03:46;;;;;;;0.00;0.00;;;;;;;26.23;40.05;100808.50;4868476;29;20064;-72
2023/10/03 10:06:28;;;;;;;0.00;0.00;;;;;;;28.55;35.95;100811.75;4874408;29;20061;-72
2023/10/03 10:09:13;;;;;;;0.00;0.00;;;;;;;26.25;38.48;100808.13;4870343;29;20036;-71
2023/10/03 10:12:12;;;;;;;0.00;0.00;;;;;;;26.64;37.89;100813.84;4874985;29;20017;-72
2023/10/03 10:15:14;;;;;;;0.00;0.00;;;;;;;24.38;40.97;100814.88;4855667;29;20484;-71
2023/10/03 10:17:55;;;;;;;0.00;0.00;;;;;;;21.85;46.54;100820.66;4874767;29;20044;-70
2023/10/03 10:20:32;;;;;;;0.00;0.00;;;;;;;20.17;52.22;100824.53;4854203;29;20037;-72
2023/10/03 10:23:02;;;;;;;0.00;0.00;;;;;;;18.75;57.44;100827.78;4860838;29;20387;-72
2023/10/03 10:25:30;;;;;;;0.00;0.00;;;;;;;18.25;58.40;100826.66;4859458;29;20033;-72
2023/10/03 10:28:06;;;;;;;0.00;0.00;;;;;;;18.27;56.49;100824.38;4868568;29;20039;-73
2023/10/03 10:30:37;;;;;;;0.00;0.00;;;;;;;21.90;47.75;100831.59;4866776;29;20029;-72
2023/10/03 10:33:15;;;;;;;0.00;0.00;;;;;;;25.51;39.38;100825.44;4865429;29;20096;-72
2023/10/03 10:36:03;;;;;;;0.00;0.00;;;;;;;28.09;35.13;100834.34;4871733;29;20037;-72
2023/10/03 10:38:31;;;;;;;0.00;0.00;;;;;;;30.38;31.72;100838.31;4855741;29;20507;-72
2023/10/03 10:41:21;;;;;;;0.00;0.00;;;;;;;32.22;28.03;100841.00;4876122;29;20116;-71
2023/10/03 10:44:09;;;;;;;0.00;0.00;;;;;;;32.27;28.30;100844.25;4869830;29;20040;-72
2023/10/03 10:46:43;;;;;;;0.00;0.00;;;;;;;33.28;27.06;100848.81;4865865;29;20369;-72
2023/10/03 10:49:33;;;;;;;0.00;0.00;;;;;;;35.37;25.27;100841.25;4848258;29;20033;-73
2023/10/03 10:52:09;;;;;;;0.00;0.00;;;;;;;36.11;23.27;100851.91;4872958;29;20029;-72
2023/10/03 10:54:41;;;;;;;0.00;0.00;;;;;;;34.91;24.27;100840.63;4853644;29;20820;-72
2023/10/03 10:57:11;;;;;;;0.00;0.00;;;;;;;34.99;24.49;100855.53;4856051;29;20037;-72
2023/10/03 10:59:40;;;;;;;0.00;0.00;;;;;;;35.36;23.72;100856.72;4860845;29;20079;-72
2023/10/03 11:02:19;;;;;;;0.00;0.00;;;;;;;34.40;23.86;100837.50;4860914;29;20033;-72
2023/10/03 11:04:58;;;;;;;0.00;0.00;;;;;;;34.23;24.38;100854.25;4859389;29;20443;-71
2023/10/03 11:07:29;;;;;;;0.00;0.00;;;;;;;35.63;22.74;100871.75;4867417;29;20021;-72
2023/10/03 11:10:04;;;;;;;0.00;0.00;;;;;;;34.77;23.41;100861.47;4875994;29;20044;-72
2023/10/03 11:12:30;;;;;;;0.00;0.00;;;;;;;32.25;26.00;100851.50;4871224;29;20639;-70
2023/10/03 11:14:58;;;;;;;0.00;0.00;;;;;;;27.41;31.98;100864.78;4859604;29;20069;-71
2023/10/03 11:17:28;;;;;;;0.00;0.00;;;;;;;23.90;38.51;100852.81;4858416;29;20037;-72
2023/10/03 11:20:00;;;;;;;0.00;0.00;;;;;;;22.24;42.66;100855.72;4857586;29;20029;-75
2023/10/03 11:22:29;;;;;;;0.00;0.00;;;;;;;21.27;45.27;100862.63;4873575;29;20043;-74
2023/10/03 11:24:55;;;;;;;0.00;0.00;;;;;;;20.24;48.62;100876.84;4872631;29;20494;-72
2023/10/03 11:27:30;;;;;;;0.00;0.00;;;;;;;19.51;50.95;100871.50;4874761;29;20032;-72
2023/10/03 11:29:55;;;;;;;0.00;0.00;;;;;;;21.15;50.09;100877.22;4860003;29;20033;-72
2023/10/03 11:32:28;;;;;;;0.00;0.00;;;;;;;25.93;39.67;100880.97;4881366;29;20075;-71
2023/10/03 11:34:56;;;;;;;0.00;0.00;;;;;;;29.77;33.29;100875.25;4852272;29;21257;-72
2023/10/03 11:37:36;;;;;;;0.00;0.00;;;;;;;33.27;27.61;100869.91;4843033;29;20056;-71